C2305 KCRP-
Flight info
| Callsign | C2305 |
|---|---|
| Flight time | N/A |
| Altitude | VFR |
| Route | FF |
| Aircraft | A400/H-VGDW/C |
Departure
| Time | 2026-04-27 02:08 |
|---|---|
| Airport | Corpus Christi International Airport (KCRP) |
Arrival
| Time | N/A |
|---|---|
| Airport | - |
| Time | Latitude | Longitude | Altitude | Speed | Heading |
|---|---|---|---|---|---|
| 2026-04-27 01:38 | 27.78053 | -97.50951 | 63 ft | 0 kts | 46° |
| 2026-04-27 01:48 | 27.78049 | -97.50955 | 54 ft | 3 kts | 45° |
| 2026-04-27 01:49 | 27.78032 | -97.50974 | 54 ft | 4 kts | 54° |
| 2026-04-27 01:49 | 27.78026 | -97.50995 | 63 ft | 4 kts | 128° |
| 2026-04-27 01:49 | 27.78046 | -97.51013 | 54 ft | 4 kts | 145° |
| 2026-04-27 01:49 | 27.78057 | -97.51023 | 64 ft | 0 kts | 136° |
| 2026-04-27 02:05 | 27.78005 | -97.50965 | 63 ft | 21 kts | 135° |
| 2026-04-27 02:05 | 27.77886 | -97.50969 | 64 ft | 25 kts | 220° |
| 2026-04-27 02:06 | 27.77776 | -97.51109 | 60 ft | 15 kts | 241° |
| 2026-04-27 02:06 | 27.77803 | -97.51184 | 60 ft | 13 kts | 314° |
| 2026-04-27 02:06 | 27.77894 | -97.51285 | 56 ft | 24 kts | 317° |
| 2026-04-27 02:06 | 27.77985 | -97.51388 | 64 ft | 13 kts | 300° |
| 2026-04-27 02:07 | 27.77959 | -97.51468 | 62 ft | 0 kts | 226° |
| 2026-04-27 02:07 | 27.77928 | -97.51504 | 62 ft | 13 kts | 222° |
| 2026-04-27 02:07 | 27.77860 | -97.51513 | 62 ft | 10 kts | 144° |
| 2026-04-27 02:08 | 27.77843 | -97.51495 | 62 ft | 0 kts | 135° |
| 2026-04-27 02:08 | 27.77755 | -97.51400 | 61 ft | 68 kts | 136° |
| 2026-04-27 02:08 | 27.77120 | -97.50707 | 104 ft | 173 kts | 136° |
| 2026-04-27 02:08 | 27.76195 | -97.49682 | 741 ft | 195 kts | 135° |
| 2026-04-27 02:09 | 27.75191 | -97.48578 | 1252 ft | 217 kts | 135° |
| 2026-04-27 02:09 | 27.74016 | -97.47300 | 1498 ft | 250 kts | 136° |
| 2026-04-27 02:09 | 27.72715 | -97.45889 | 1855 ft | 266 kts | 136° |
| 2026-04-27 02:09 | 27.71367 | -97.44428 | 2439 ft | 271 kts | 136° |
| 2026-04-27 02:10 | 27.69996 | -97.42941 | 3048 ft | 276 kts | 136° |
| 2026-04-27 02:10 | 27.68606 | -97.41432 | 3642 ft | 275 kts | 136° |
| 2026-04-27 02:10 | 27.67273 | -97.39981 | 4229 ft | 258 kts | 136° |
| 2026-04-27 02:10 | 27.65991 | -97.38585 | 4835 ft | 261 kts | 137° |
| 2026-04-27 02:11 | 27.64675 | -97.37156 | 5430 ft | 264 kts | 137° |
| 2026-04-27 02:11 | 27.63342 | -97.35707 | 6032 ft | 268 kts | 137° |
| 2026-04-27 02:11 | 27.61992 | -97.34239 | 6634 ft | 272 kts | 137° |
| 2026-04-27 02:11 | 27.60622 | -97.32750 | 7239 ft | 276 kts | 137° |
| 2026-04-27 02:12 | 27.59227 | -97.31233 | 7840 ft | 280 kts | 137° |
| 2026-04-27 02:12 | 27.57817 | -97.29699 | 8441 ft | 284 kts | 137° |
| 2026-04-27 02:12 | 27.56384 | -97.28140 | 9045 ft | 288 kts | 137° |
| 2026-04-27 02:12 | 27.54930 | -97.26559 | 9648 ft | 292 kts | 137° |
| 2026-04-27 02:13 | 27.53442 | -97.24941 | 10154 ft | 306 kts | 137° |
| 2026-04-27 02:13 | 27.51835 | -97.23195 | 10343 ft | 332 kts | 137° |
| 2026-04-27 02:13 | 27.50144 | -97.21356 | 10355 ft | 341 kts | 136° |
| 2026-04-27 02:13 | 27.48602 | -97.19367 | 10350 ft | 343 kts | 126° |
| 2026-04-27 02:14 | 27.47505 | -97.16983 | 10353 ft | 345 kts | 110° |
| 2026-04-27 02:14 | 27.46848 | -97.14378 | 10351 ft | 346 kts | 103° |
| 2026-04-27 02:14 | 27.46422 | -97.11714 | 10357 ft | 345 kts | 99° |
| 2026-04-27 02:14 | 27.46123 | -97.09030 | 10362 ft | 346 kts | 97° |
| 2026-04-27 02:15 | 27.45880 | -97.06341 | 10362 ft | 345 kts | 96° |
| 2026-04-27 02:15 | 27.45644 | -97.03615 | 10351 ft | 345 kts | 96° |
| 2026-04-27 02:15 | 27.45405 | -97.00956 | 10351 ft | 346 kts | 96° |
| 2026-04-27 02:15 | 27.45148 | -96.98267 | 10350 ft | 345 kts | 97° |
| 2026-04-27 02:16 | 27.44876 | -96.95575 | 10350 ft | 345 kts | 97° |
| 2026-04-27 02:16 | 27.44595 | -96.92894 | 10356 ft | 346 kts | 97° |
| 2026-04-27 02:16 | 27.44305 | -96.90199 | 10363 ft | 346 kts | 97° |
| 2026-04-27 02:16 | 27.44013 | -96.87508 | 10358 ft | 346 kts | 97° |
| 2026-04-27 02:17 | 27.43719 | -96.84822 | 10359 ft | 346 kts | 97° |
| 2026-04-27 02:17 | 27.43425 | -96.82132 | 10358 ft | 346 kts | 97° |
| 2026-04-27 02:17 | 27.43130 | -96.79438 | 10363 ft | 346 kts | 97° |
| 2026-04-27 02:17 | 27.42835 | -96.76746 | 10362 ft | 347 kts | 97° |
| 2026-04-27 02:18 | 27.42541 | -96.74052 | 10358 ft | 347 kts | 97° |
| 2026-04-27 02:18 | 27.42247 | -96.71355 | 10366 ft | 347 kts | 97° |
| 2026-04-27 02:18 | 27.41952 | -96.68665 | 10367 ft | 347 kts | 97° |
| 2026-04-27 02:18 | 27.41659 | -96.65973 | 10374 ft | 347 kts | 97° |
| 2026-04-27 02:19 | 27.41362 | -96.63279 | 10368 ft | 347 kts | 97° |
| 2026-04-27 02:19 | 27.41063 | -96.60589 | 10370 ft | 346 kts | 97° |
| 2026-04-27 02:19 | 27.40765 | -96.57903 | 10368 ft | 346 kts | 97° |
| 2026-04-27 02:19 | 27.40468 | -96.55207 | 10371 ft | 347 kts | 97° |
| 2026-04-27 02:20 | 27.40169 | -96.52511 | 10374 ft | 347 kts | 97° |
| 2026-04-27 02:20 | 27.39869 | -96.49819 | 10370 ft | 347 kts | 97° |
| 2026-04-27 02:20 | 27.39571 | -96.47126 | 10368 ft | 347 kts | 97° |
| 2026-04-27 02:20 | 27.39277 | -96.44463 | 10380 ft | 346 kts | 97° |
| 2026-04-27 02:21 | 27.38980 | -96.41773 | 10377 ft | 346 kts | 97° |
| 2026-04-27 02:21 | 27.38681 | -96.39077 | 10377 ft | 346 kts | 97° |
| 2026-04-27 02:21 | 27.38382 | -96.36387 | 10382 ft | 346 kts | 97° |
| 2026-04-27 02:21 | 27.38081 | -96.33694 | 10376 ft | 346 kts | 97° |
| 2026-04-27 02:22 | 27.37779 | -96.31007 | 10379 ft | 347 kts | 98° |
| 2026-04-27 02:22 | 27.37473 | -96.28311 | 10378 ft | 347 kts | 98° |
| 2026-04-27 02:22 | 27.37170 | -96.25621 | 10381 ft | 346 kts | 97° |
| 2026-04-27 02:22 | 27.36866 | -96.22924 | 10378 ft | 346 kts | 97° |
| 2026-04-27 02:23 | 27.36566 | -96.20266 | 10381 ft | 346 kts | 98° |
| 2026-04-27 02:23 | 27.36263 | -96.17580 | 10378 ft | 346 kts | 98° |
| 2026-04-27 02:23 | 27.35958 | -96.14893 | 10378 ft | 346 kts | 98° |
| 2026-04-27 02:23 | 27.35653 | -96.12205 | 10379 ft | 347 kts | 98° |
| 2026-04-27 02:24 | 27.35349 | -96.09517 | 10377 ft | 346 kts | 98° |
| 2026-04-27 02:24 | 27.35043 | -96.06827 | 10378 ft | 346 kts | 97° |
| 2026-04-27 02:24 | 27.34737 | -96.04140 | 10377 ft | 346 kts | 98° |
| 2026-04-27 02:24 | 27.34431 | -96.01455 | 10378 ft | 346 kts | 98° |
| 2026-04-27 02:25 | 27.34125 | -95.98769 | 10379 ft | 347 kts | 98° |
| 2026-04-27 02:25 | 27.33817 | -95.96084 | 10379 ft | 346 kts | 98° |
| 2026-04-27 02:25 | 27.33506 | -95.93391 | 10379 ft | 347 kts | 98° |
| 2026-04-27 02:25 | 27.33195 | -95.90708 | 10378 ft | 346 kts | 98° |
| 2026-04-27 02:26 | 27.32883 | -95.88027 | 10377 ft | 344 kts | 98° |
| 2026-04-27 02:26 | 27.32576 | -95.85349 | 10377 ft | 345 kts | 98° |
| 2026-04-27 02:26 | 27.32268 | -95.82671 | 10380 ft | 346 kts | 98° |
| 2026-04-27 02:26 | 27.31958 | -95.79994 | 10379 ft | 346 kts | 98° |
| 2026-04-27 02:27 | 27.31648 | -95.77309 | 10368 ft | 346 kts | 98° |
| 2026-04-27 02:27 | 27.31335 | -95.74625 | 10367 ft | 346 kts | 98° |
| 2026-04-27 02:27 | 27.31022 | -95.71946 | 10367 ft | 345 kts | 98° |
| 2026-04-27 02:27 | 27.30709 | -95.69267 | 10368 ft | 346 kts | 98° |
| 2026-04-27 02:28 | 27.30396 | -95.66585 | 10378 ft | 346 kts | 98° |
| 2026-04-27 02:28 | 27.30082 | -95.63904 | 10382 ft | 346 kts | 98° |
| 2026-04-27 02:28 | 27.29766 | -95.61218 | 10380 ft | 346 kts | 98° |
| 2026-04-27 02:28 | 27.29450 | -95.58537 | 10381 ft | 346 kts | 98° |
| 2026-04-27 02:29 | 27.29140 | -95.55891 | 10381 ft | 346 kts | 98° |
| 2026-04-27 02:29 | 27.28822 | -95.53176 | 10377 ft | 346 kts | 98° |
| 2026-04-27 02:29 | 27.28510 | -95.50527 | 10376 ft | 346 kts | 98° |
| 2026-04-27 02:29 | 27.28193 | -95.47846 | 10379 ft | 346 kts | 98° |
| 2026-04-27 02:30 | 27.27875 | -95.45163 | 10379 ft | 346 kts | 98° |
| 2026-04-27 02:30 | 27.27553 | -95.42483 | 10381 ft | 346 kts | 98° |
| 2026-04-27 02:30 | 27.27233 | -95.39797 | 10382 ft | 346 kts | 98° |
| 2026-04-27 02:30 | 27.26914 | -95.37116 | 10376 ft | 346 kts | 98° |
| 2026-04-27 02:31 | 27.26578 | -95.34451 | 10372 ft | 343 kts | 99° |
| 2026-04-27 02:31 | 27.26256 | -95.31783 | 10381 ft | 345 kts | 98° |
| 2026-04-27 02:31 | 27.25942 | -95.29101 | 10380 ft | 348 kts | 98° |
| 2026-04-27 02:31 | 27.25624 | -95.26412 | 10375 ft | 348 kts | 98° |
| 2026-04-27 02:32 | 27.25308 | -95.23718 | 10377 ft | 348 kts | 98° |
| 2026-04-27 02:32 | 27.24989 | -95.21032 | 10383 ft | 344 kts | 98° |
| 2026-04-27 02:32 | 27.24671 | -95.18360 | 10383 ft | 346 kts | 98° |
| 2026-04-27 02:32 | 27.24350 | -95.15674 | 10380 ft | 347 kts | 98° |
| 2026-04-27 02:33 | 27.24027 | -95.12991 | 10379 ft | 346 kts | 98° |
| 2026-04-27 02:33 | 27.23703 | -95.10314 | 10377 ft | 346 kts | 98° |
| 2026-04-27 02:33 | 27.23378 | -95.07636 | 10380 ft | 346 kts | 98° |
| 2026-04-27 02:33 | 27.23052 | -95.04966 | 10215 ft | 340 kts | 98° |
| 2026-04-27 02:34 | 27.22738 | -95.02401 | 9900 ft | 323 kts | 98° |
| 2026-04-27 02:34 | 27.22442 | -94.99963 | 9607 ft | 308 kts | 98° |
| 2026-04-27 02:34 | 27.22155 | -94.97616 | 9193 ft | 300 kts | 99° |
| 2026-04-27 02:34 | 27.21872 | -94.95315 | 8703 ft | 295 kts | 99° |
| 2026-04-27 02:35 | 27.21597 | -94.93069 | 8185 ft | 292 kts | 99° |
| 2026-04-27 02:35 | 27.21326 | -94.90819 | 7663 ft | 289 kts | 99° |
| 2026-04-27 02:35 | 27.21056 | -94.88585 | 7177 ft | 286 kts | 100° |
| 2026-04-27 02:35 | 27.20777 | -94.86396 | 6656 ft | 282 kts | 100° |
| 2026-04-27 02:36 | 27.20507 | -94.84229 | 6102 ft | 279 kts | 100° |
| 2026-04-27 02:36 | 27.20240 | -94.82072 | 5589 ft | 277 kts | 99° |
| 2026-04-27 02:36 | 27.19976 | -94.79936 | 5149 ft | 273 kts | 100° |
| 2026-04-27 02:36 | 27.19719 | -94.77842 | 4683 ft | 268 kts | 100° |
| 2026-04-27 02:37 | 27.19466 | -94.75773 | 4184 ft | 266 kts | 100° |
| 2026-04-27 02:37 | 27.19215 | -94.73727 | 3672 ft | 263 kts | 101° |
| 2026-04-27 02:37 | 27.18966 | -94.71699 | 3406 ft | 260 kts | 101° |
| 2026-04-27 02:37 | 27.18725 | -94.69686 | 3386 ft | 261 kts | 98° |
| 2026-04-27 02:38 | 27.18904 | -94.67651 | 3387 ft | 265 kts | 78° |
| 2026-04-27 02:38 | 27.19773 | -94.65810 | 3389 ft | 272 kts | 55° |
| 2026-04-27 02:38 | 27.21071 | -94.64247 | 3388 ft | 275 kts | 48° |
| 2026-04-27 02:38 | 27.22436 | -94.62747 | 3386 ft | 274 kts | 47° |
| 2026-04-27 02:39 | 27.23893 | -94.61347 | 3387 ft | 278 kts | 36° |
| 2026-04-27 02:39 | 27.25646 | -94.60390 | 3394 ft | 281 kts | 25° |
| 2026-04-27 02:39 | 27.27467 | -94.59588 | 3398 ft | 282 kts | 24° |
| 2026-04-27 02:39 | 27.29298 | -94.58804 | 3397 ft | 281 kts | 23° |
| 2026-04-27 02:40 | 27.31134 | -94.58017 | 3395 ft | 281 kts | 23° |
| 2026-04-27 02:40 | 27.32958 | -94.57233 | 3397 ft | 281 kts | 23° |
| 2026-04-27 02:40 | 27.34762 | -94.56459 | 3398 ft | 281 kts | 23° |
| 2026-04-27 02:40 | 27.36607 | -94.55741 | 3395 ft | 282 kts | 15° |
| 2026-04-27 02:41 | 27.38567 | -94.55582 | 3397 ft | 284 kts | 354° |
| 2026-04-27 02:41 | 27.40427 | -94.56310 | 3396 ft | 286 kts | 326° |
| 2026-04-27 02:41 | 27.41735 | -94.57943 | 3397 ft | 282 kts | 294° |
| 2026-04-27 02:41 | 27.42265 | -94.60040 | 3399 ft | 278 kts | 275° |
| 2026-04-27 02:42 | 27.42461 | -94.62204 | 3398 ft | 276 kts | 271° |
| 2026-04-27 02:42 | 27.42603 | -94.64366 | 3397 ft | 277 kts | 271° |
| 2026-04-27 02:42 | 27.42747 | -94.66524 | 3396 ft | 277 kts | 271° |
| 2026-04-27 02:42 | 27.42902 | -94.68688 | 3396 ft | 278 kts | 271° |
| 2026-04-27 02:43 | 27.43065 | -94.70859 | 3400 ft | 278 kts | 272° |
| 2026-04-27 02:43 | 27.43235 | -94.73028 | 3396 ft | 278 kts | 272° |
| 2026-04-27 02:43 | 27.43408 | -94.75192 | 3446 ft | 277 kts | 272° |
| 2026-04-27 02:43 | 27.43580 | -94.77355 | 3543 ft | 278 kts | 272° |
| 2026-04-27 02:44 | 27.43753 | -94.79528 | 3554 ft | 278 kts | 272° |
| 2026-04-27 02:44 | 27.43925 | -94.81693 | 3549 ft | 278 kts | 272° |
| 2026-04-27 02:44 | 27.44099 | -94.83856 | 3546 ft | 277 kts | 272° |
| 2026-04-27 02:44 | 27.44271 | -94.86020 | 3549 ft | 277 kts | 272° |
| 2026-04-27 02:45 | 27.44385 | -94.87467 | 3699 ft | 284 kts | 272° |
| 2026-04-27 02:45 | 27.44621 | -94.90520 | 4733 ft | 302 kts | 272° |
| 2026-04-27 02:45 | 27.44807 | -94.92834 | 5294 ft | 290 kts | 272° |
| 2026-04-27 02:45 | 27.44987 | -94.95069 | 5524 ft | 285 kts | 272° |
| 2026-04-27 02:46 | 27.45162 | -94.97285 | 5554 ft | 283 kts | 272° |
| 2026-04-27 02:46 | 27.45338 | -94.99492 | 5553 ft | 283 kts | 272° |
| 2026-04-27 02:46 | 27.45455 | -95.00980 | 5549 ft | 282 kts | 272° |
| 2026-04-27 02:46 | 27.45628 | -95.03178 | 5553 ft | 282 kts | 272° |
| 2026-04-27 02:47 | 27.45798 | -95.05348 | 5553 ft | 282 kts | 272° |
| 2026-04-27 02:47 | 27.45968 | -95.07551 | 5554 ft | 282 kts | 272° |
| 2026-04-27 02:47 | 27.46137 | -95.09754 | 5550 ft | 282 kts | 272° |
| 2026-04-27 02:47 | 27.46309 | -95.11957 | 5549 ft | 282 kts | 272° |
| 2026-04-27 02:48 | 27.46480 | -95.14165 | 5548 ft | 283 kts | 272° |
| 2026-04-27 02:48 | 27.46650 | -95.16371 | 5549 ft | 282 kts | 272° |
| 2026-04-27 02:48 | 27.46819 | -95.18574 | 5551 ft | 282 kts | 272° |
| 2026-04-27 02:48 | 27.46989 | -95.20773 | 5557 ft | 281 kts | 272° |
| 2026-04-27 02:49 | 27.47161 | -95.22961 | 5559 ft | 280 kts | 272° |
| 2026-04-27 02:49 | 27.47333 | -95.25159 | 5562 ft | 283 kts | 272° |
| 2026-04-27 02:49 | 27.47501 | -95.27364 | 5562 ft | 283 kts | 272° |
| 2026-04-27 02:49 | 27.47670 | -95.29565 | 5561 ft | 282 kts | 272° |
| 2026-04-27 02:50 | 27.47834 | -95.31770 | 5559 ft | 283 kts | 272° |